Time;durP1;ratioP1;P1;durP2;ratioP2;P2;SDS_P1;SDS_P2;PMS_P1;PMS_P2;Temp;Humidity;BMP_temperature;BMP_pressure;BME280_temperature;BME280_humidity;BME280_pressure;Samples;Min_cycle;Max_cycle;Signal;HPM_P1;HPM_P2
2022/03/31 00:01:12;;;;;;;;;;;4.80;78.40;;;;;;2127484;67;20110;-80
2022/03/31 00:03:53;;;;;;;;;;;4.80;79.90;;;;;;2141575;66;20139;-79
2022/03/31 00:06:38;;;;;;;;;;;4.70;80.40;;;;;;2132917;67;20273;-79
2022/03/31 00:09:19;;;;;;;;;;;4.70;82.60;;;;;;2123746;67;20138;-80
2022/03/31 00:12:02;;;;;;;;;;;5.10;82.40;;;;;;2135162;67;20311;-80
2022/03/31 00:14:46;;;;;;;;;;;4.50;82.60;;;;;;2163664;66;20082;-79
2022/03/31 00:17:27;;;;;;;;;;;4.50;82.30;;;;;;2144334;66;20723;-78
2022/03/31 00:20:10;;;;;;;;;;;4.50;87.40;;;;;;2139989;67;20259;-78
2022/03/31 00:22:52;;;;;;;;;;;4.40;84.50;;;;;;2130357;67;20044;-79
2022/03/31 00:25:33;;;;;;;;;;;4.40;83.00;;;;;;2135283;67;20135;-79
2022/03/31 00:28:15;;;;;;;;;;;4.40;84.30;;;;;;2129871;67;20179;-79
2022/03/31 00:30:56;;;;;;;;;;;4.40;85.00;;;;;;2134105;67;20113;-79
2022/03/31 00:33:42;;;;;;;;;;;4.40;84.00;;;;;;2128867;67;20075;-78
2022/03/31 00:36:26;;;;;;;;;;;4.40;85.70;;;;;;2121883;67;20237;-79
2022/03/31 00:42:09;;;;;;;;;;;4.40;89.60;;;;;;2140067;66;20273;-78
2022/03/31 00:44:51;;;;;;;;;;;4.30;85.50;;;;;;2138274;67;20154;-81
2022/03/31 00:47:35;;;;;;;;;;;4.30;86.60;;;;;;2147962;66;20062;-79
2022/03/31 00:50:18;;;;;;;;;;;4.30;85.70;;;;;;2148244;66;20133;-79
2022/03/31 00:53:02;;;;;;;;;;;4.20;88.20;;;;;;2150429;66;20114;-79
2022/03/31 00:55:44;;;;;;;;;;;4.20;86.30;;;;;;2117429;67;20254;-80
2022/03/31 00:58:25;;;;;;;;;;;4.20;85.80;;;;;;2117582;66;20129;-78
2022/03/31 01:01:08;;;;;;;;;;;4.10;85.20;;;;;;2119657;67;20245;-79
2022/03/31 01:03:50;;;;;;;;;;;4.10;86.50;;;;;;2147085;66;20675;-79
2022/03/31 01:06:32;;;;;;;;;;;4.10;88.50;;;;;;2135529;66;20536;-78
2022/03/31 01:09:15;;;;;;;;;;;4.00;87.70;;;;;;2135654;67;20073;-79
2022/03/31 01:11:57;;;;;;;;;;;4.00;88.50;;;;;;2148231;66;20319;-79
2022/03/31 01:14:47;;;;;;;;;;;4.00;89.10;;;;;;2154416;66;20448;-80
2022/03/31 01:17:38;;;;;;;;;;;3.90;90.70;;;;;;2140032;66;20077;-79
2022/03/31 01:20:12;;;;;;;;;;;3.90;91.20;;;;;;2132546;67;20056;-79
2022/03/31 01:22:50;;;;;;;;;;;3.90;90.40;;;;;;2144051;66;20129;-79
2022/03/31 01:25:26;;;;;;;;;;;3.90;90.30;;;;;;2103672;67;20516;-79
2022/03/31 01:27:56;;;;;;;;;;;3.90;91.10;;;;;;2133557;66;20055;-79
2022/03/31 01:30:46;;;;;;;;;;;3.90;92.00;;;;;;2153430;66;20045;-78
2022/03/31 01:33:36;;;;;;;;;;;3.90;91.70;;;;;;2163858;66;20207;-79
2022/03/31 01:36:14;;;;;;;;;;;3.90;92.60;;;;;;2163884;66;20046;-80
2022/03/31 01:38:50;;;;;;;;;;;3.80;91.30;;;;;;2157013;66;20734;-79
2022/03/31 01:41:27;;;;;;;;;;;3.80;93.10;;;;;;2178114;65;20073;-79
2022/03/31 01:44:00;;;;;;;;;;;3.80;92.80;;;;;;2186003;65;20088;-79
2022/03/31 01:46:38;;;;;;;;;;;3.70;94.00;;;;;;2186463;65;20047;-79
2022/03/31 01:49:19;;;;;;;;;;;3.70;95.10;;;;;;2179650;65;20059;-79
2022/03/31 01:51:55;;;;;;;;;;;3.70;94.70;;;;;;2188356;65;20046;-78
2022/03/31 01:54:31;;;;;;;;;;;3.80;94.80;;;;;;2194377;65;20208;-79
2022/03/31 01:57:09;;;;;;;;;;;3.80;95.20;;;;;;2197883;65;20097;-78
2022/03/31 01:59:46;;;;;;;;;;;3.80;96.40;;;;;;2201289;64;20046;-80
2022/03/31 02:02:22;;;;;;;;;;;3.70;96.20;;;;;;2201110;64;20053;-78
2022/03/31 02:05:00;;;;;;;;;;;3.70;96.40;;;;;;2200571;64;20117;-79
2022/03/31 02:07:45;;;;;;;;;;;3.70;96.60;;;;;;2201660;64;20186;-79
2022/03/31 02:10:27;;;;;;;;;;;3.70;95.60;;;;;;2201949;64;20091;-79
2022/03/31 02:13:08;;;;;;;;;;;3.70;95.70;;;;;;2220524;64;20198;-79
2022/03/31 02:15:49;;;;;;;;;;;3.70;96.00;;;;;;2213088;64;20202;-79
2022/03/31 02:18:31;;;;;;;;;;;3.70;96.80;;;;;;2200589;65;20221;-78
2022/03/31 02:21:13;;;;;;;;;;;3.80;97.70;;;;;;1946497;65;15955710;-78
2022/03/31 02:23:54;;;;;;;;;;;3.70;97.60;;;;;;2181733;65;20056;-79
2022/03/31 02:26:38;;;;;;;;;;;3.70;97.80;;;;;;2183936;65;20307;-79
2022/03/31 02:29:23;;;;;;;;;;;3.70;98.20;;;;;;2168688;66;20714;-79
2022/03/31 02:32:12;;;;;;;;;;;3.70;98.00;;;;;;2153224;66;20046;-79
2022/03/31 02:34:54;;;;;;;;;;;3.70;98.10;;;;;;2141725;66;20552;-79
2022/03/31 02:37:35;;;;;;;;;;;3.70;99.50;;;;;;2151780;66;20145;-78
2022/03/31 02:40:18;;;;;;;;;;;3.70;99.00;;;;;;2153983;66;20046;-77
2022/03/31 02:43:03;;;;;;;;;;;3.70;99.30;;;;;;2154378;66;20139;-77
2022/03/31 02:45:47;;;;;;;;;;;4.10;99.80;;;;;;2157259;66;20285;-80
2022/03/31 02:48:30;;;;;;;;;;;3.70;99.90;;;;;;2155469;66;20476;-78
2022/03/31 02:51:14;;;;;;;;;;;3.70;99.90;;;;;;2148376;66;20058;-78
2022/03/31 02:56:55;;;;;;;;;;;3.70;99.90;;;;;;2150294;66;20124;-78
2022/03/31 02:59:38;;;;;;;;;;;3.70;99.90;;;;;;2155694;66;20046;-79
2022/03/31 03:02:22;;;;;;;;;;;3.70;99.90;;;;;;2155558;66;20173;-79
2022/03/31 03:05:04;;;;;;;;;;;3.70;99.90;;;;;;2147014;66;20725;-78
2022/03/31 03:07:45;;;;;;;;;;;3.60;99.90;;;;;;2141108;66;20697;-79
2022/03/31 03:10:27;;;;;;;;;;;3.60;99.90;;;;;;2138954;67;20193;-78
2022/03/31 03:13:08;;;;;;;;;;;3.60;99.90;;;;;;2149586;66;20074;-80
2022/03/31 03:15:50;;;;;;;;;;;3.50;99.90;;;;;;2156086;66;22125;-79
2022/03/31 03:18:31;;;;;;;;;;;3.50;99.90;;;;;;2149216;66;20358;-79
2022/03/31 03:21:13;;;;;;;;;;;3.50;99.90;;;;;;2142899;66;20149;-79
2022/03/31 03:23:57;;;;;;;;;;;3.40;99.90;;;;;;2144085;66;20090;-79
2022/03/31 03:26:38;;;;;;;;;;;3.40;99.90;;;;;;2140382;67;20055;-79
2022/03/31 03:29:21;;;;;;;;;;;3.30;99.90;;;;;;2132653;67;20188;-79
2022/03/31 03:32:11;;;;;;;;;;;3.30;99.90;;;;;;2131279;67;20603;-79
2022/03/31 03:34:52;;;;;;;;;;;3.20;99.90;;;;;;2127221;67;20637;-78
2022/03/31 03:37:33;;;;;;;;;;;3.20;99.90;;;;;;2128552;67;20125;-80
2022/03/31 03:40:15;;;;;;;;;;;3.20;99.90;;;;;;2124109;67;20103;-80
2022/03/31 03:42:56;;;;;;;;;;;3.10;99.90;;;;;;2129719;67;20197;-79
2022/03/31 03:45:38;;;;;;;;;;;3.10;99.90;;;;;;2147444;66;20773;-80
2022/03/31 03:48:23;;;;;;;;;;;3.00;99.90;;;;;;2142790;66;20282;-79
2022/03/31 03:51:04;;;;;;;;;;;3.00;99.90;;;;;;2141859;67;20151;-78
2022/03/31 03:53:46;;;;;;;;;;;2.90;99.90;;;;;;2135043;67;20246;-79
2022/03/31 03:56:30;;;;;;;;;;;2.90;99.90;;;;;;2134540;67;20114;-79
2022/03/31 03:59:12;;;;;;;;;;;3.20;99.90;;;;;;2127310;67;20141;-79
2022/03/31 04:01:53;;;;;;;;;;;2.90;99.90;;;;;;2126655;67;20158;-81
2022/03/31 04:04:35;;;;;;;;;;;2.80;99.90;;;;;;2135397;67;20127;-80
2022/03/31 04:07:16;;;;;;;;;;;2.80;99.90;;;;;;2143350;66;20107;-78
2022/03/31 04:09:58;;;;;;;;;;;3.00;99.90;;;;;;2156171;66;20105;-79
2022/03/31 04:12:40;;;;;;;;;;;2.80;99.90;;;;;;2156746;66;20195;-80
2022/03/31 04:15:21;;;;;;;;;;;2.80;99.90;;;;;;2159105;66;20513;-80
2022/03/31 04:18:05;;;;;;;;;;;2.80;99.90;;;;;;2156082;66;20073;-79
2022/03/31 04:20:47;;;;;;;;;;;2.70;99.90;;;;;;2156184;66;20150;-79
2022/03/31 04:23:30;;;;;;;;;;;2.70;99.90;;;;;;2155482;66;20053;-80
2022/03/31 04:26:17;;;;;;;;;;;2.60;99.90;;;;;;2140693;67;20068;-80
2022/03/31 04:29:05;;;;;;;;;;;2.60;99.90;;;;;;2120158;67;20212;-79
2022/03/31 04:31:49;;;;;;;;;;;2.60;99.90;;;;;;2133536;67;20072;-80
2022/03/31 04:34:31;;;;;;;;;;;2.50;99.90;;;;;;2114287;67;20194;-80
2022/03/31 04:37:13;;;;;;;;;;;2.50;99.90;;;;;;2108787;67;20199;-80
2022/03/31 04:39:54;;;;;;;;;;;2.50;99.90;;;;;;2108057;67;20658;-80
2022/03/31 04:42:36;;;;;;;;;;;2.50;99.90;;;;;;2119784;67;20147;-80
2022/03/31 04:45:21;;;;;;;;;;;2.50;99.90;;;;;;2127158;67;20171;-79
2022/03/31 04:48:08;;;;;;;;;;;2.50;99.90;;;;;;2119999;67;20077;-79
2022/03/31 04:50:49;;;;;;;;;;;2.50;99.90;;;;;;2125387;67;20206;-78
2022/03/31 04:53:34;;;;;;;;;;;2.70;99.90;;;;;;2113467;67;20187;-79
2022/03/31 04:56:20;;;;;;;;;;;2.40;99.90;;;;;;2109108;67;20112;-79
2022/03/31 04:59:02;;;;;;;;;;;2.40;99.90;;;;;;2124861;67;20093;-80
2022/03/31 05:01:49;;;;;;;;;;;2.40;99.90;;;;;;2118367;67;20207;-79
2022/03/31 05:04:32;;;;;;;;;;;2.50;99.90;;;;;;2120506;67;20181;-79
2022/03/31 05:07:16;;;;;;;;;;;2.50;99.90;;;;;;2133571;67;20587;-79
2022/03/31 05:09:58;;;;;;;;;;;2.50;99.90;;;;;;2141140;66;20672;-78
2022/03/31 05:12:40;;;;;;;;;;;3.10;99.90;;;;;;2133427;67;20220;-78
2022/03/31 05:15:29;;;;;;;;;;;2.50;99.90;;;;;;2137137;67;20118;-79
2022/03/31 05:18:13;;;;;;;;;;;2.50;99.90;;;;;;2133212;67;20150;-79
2022/03/31 05:20:55;;;;;;;;;;;2.60;99.90;;;;;;2148485;66;20066;-79
2022/03/31 05:23:37;;;;;;;;;;;2.60;99.90;;;;;;2149833;66;20211;-79
2022/03/31 05:26:22;;;;;;;;;;;2.60;99.90;;;;;;2141722;67;20131;-80
2022/03/31 05:29:08;;;;;;;;;;;2.60;99.90;;;;;;2140947;67;20191;-79
2022/03/31 05:31:52;;;;;;;;;;;2.60;99.90;;;;;;2139414;67;20210;-80
2022/03/31 05:34:35;;;;;;;;;;;2.70;99.90;;;;;;2135346;67;20487;-80
2022/03/31 05:37:17;;;;;;;;;;;2.60;99.90;;;;;;2134624;67;20123;-79
2022/03/31 05:40:02;;;;;;;;;;;2.60;99.90;;;;;;2146548;66;20072;-78
2022/03/31 05:42:44;;;;;;;;;;;2.70;99.90;;;;;;2141499;67;20055;-80
2022/03/31 05:45:26;;;;;;;;;;;2.70;99.90;;;;;;2120662;67;20233;-79
2022/03/31 05:48:08;;;;;;;;;;;2.70;99.90;;;;;;2109262;68;20174;-79
2022/03/31 05:50:52;;;;;;;;;;;2.70;99.90;;;;;;2120082;67;20209;-78
2022/03/31 05:53:35;;;;;;;;;;;2.70;99.90;;;;;;2128433;67;20744;-79
2022/03/31 05:56:20;;;;;;;;;;;2.70;99.90;;;;;;2133806;67;20072;-79
2022/03/31 05:59:04;;;;;;;;;;;2.70;99.90;;;;;;2134089;67;20126;-77
2022/03/31 06:01:46;;;;;;;;;;;2.70;99.90;;;;;;2134869;67;20205;-79
2022/03/31 06:04:27;;;;;;;;;;;2.90;99.90;;;;;;2134911;67;20185;-79
2022/03/31 06:07:09;;;;;;;;;;;2.70;99.90;;;;;;2120512;67;20574;-79
2022/03/31 06:09:54;;;;;;;;;;;2.80;99.90;;;;;;2127474;67;20193;-78
2022/03/31 06:12:35;;;;;;;;;;;2.70;99.90;;;;;;2133505;67;20091;-80
2022/03/31 06:15:17;;;;;;;;;;;2.70;99.90;;;;;;2134895;67;20592;-80
2022/03/31 06:17:58;;;;;;;;;;;2.80;99.90;;;;;;2127343;67;20536;-80
2022/03/31 06:20:40;;;;;;;;;;;2.80;99.90;;;;;;2125460;67;20639;-80
2022/03/31 06:23:22;;;;;;;;;;;2.70;99.90;;;;;;2132348;67;20097;-79
2022/03/31 06:26:07;;;;;;;;;;;2.70;99.90;;;;;;2139615;67;20190;-79
2022/03/31 06:28:51;;;;;;;;;;;2.70;99.90;;;;;;2141681;66;20060;-78
2022/03/31 06:31:32;;;;;;;;;;;2.70;99.90;;;;;;2137820;67;20591;-80
2022/03/31 06:34:13;;;;;;;;;;;2.80;99.90;;;;;;2155044;66;20046;-79
2022/03/31 06:36:55;;;;;;;;;;;2.80;99.90;;;;;;2156688;66;20109;-79
2022/03/31 06:39:40;;;;;;;;;;;2.80;99.90;;;;;;2163889;66;20164;-79
2022/03/31 06:42:22;;;;;;;;;;;2.80;99.90;;;;;;2149408;66;20071;-80
2022/03/31 06:45:05;;;;;;;;;;;2.80;99.90;;;;;;2155491;66;20116;-79
2022/03/31 06:47:49;;;;;;;;;;;2.80;99.90;;;;;;2140195;67;20072;-81
2022/03/31 06:50:32;;;;;;;;;;;2.90;99.90;;;;;;2132365;67;20265;-79
2022/03/31 06:53:14;;;;;;;;;;;3.00;99.90;;;;;;2124269;67;20111;-80
2022/03/31 06:55:55;;;;;;;;;;;2.90;99.90;;;;;;2130852;67;20300;-79
2022/03/31 06:58:37;;;;;;;;;;;3.80;99.90;;;;;;2134978;67;20359;-79
2022/03/31 07:01:22;;;;;;;;;;;2.90;99.90;;;;;;2128403;67;20152;-80
2022/03/31 07:04:07;;;;;;;;;;;2.90;99.90;;;;;;2128408;67;20666;-80
2022/03/31 07:06:52;;;;;;;;;;;3.00;99.90;;;;;;2120300;67;20069;-80
2022/03/31 07:09:36;;;;;;;;;;;3.00;99.90;;;;;;2111762;67;20110;-79
2022/03/31 07:12:18;;;;;;;;;;;3.00;99.90;;;;;;2100148;68;20268;-80
2022/03/31 07:15:03;;;;;;;;;;;3.00;99.90;;;;;;2105306;67;20203;-80
2022/03/31 07:17:45;;;;;;;;;;;3.00;99.90;;;;;;2111249;67;20566;-79
2022/03/31 07:20:34;;;;;;;;;;;3.10;99.90;;;;;;2118144;67;20146;-80
2022/03/31 07:23:23;;;;;;;;;;;3.10;99.90;;;;;;2118045;67;20250;-80
2022/03/31 07:26:06;;;;;;;;;;;3.10;99.90;;;;;;2110206;67;20198;-79
2022/03/31 07:28:47;;;;;;;;;;;3.10;99.90;;;;;;2112855;67;20250;-79
2022/03/31 07:31:29;;;;;;;;;;;3.10;99.90;;;;;;2119810;67;20078;-81
2022/03/31 07:34:11;;;;;;;;;;;3.10;99.90;;;;;;2133424;67;20067;-80
2022/03/31 07:36:54;;;;;;;;;;;3.00;99.90;;;;;;2127045;67;21128;-80
2022/03/31 07:39:35;;;;;;;;;;;3.30;99.90;;;;;;2102981;67;20090;-79
2022/03/31 07:42:19;;;;;;;;;;;3.20;99.90;;;;;;2102313;68;20051;-80
2022/03/31 07:45:03;;;;;;;;;;;3.20;99.90;;;;;;2102958;68;20681;-80
2022/03/31 07:47:46;;;;;;;;;;;3.20;99.90;;;;;;2135397;66;20265;-79
2022/03/31 07:50:27;;;;;;;;;;;3.30;99.90;;;;;;2134271;66;20633;-79
2022/03/31 07:53:10;;;;;;;;;;;3.30;99.90;;;;;;2141958;66;20051;-80
2022/03/31 07:55:51;;;;;;;;;;;3.30;99.90;;;;;;2132606;67;20604;-79
2022/03/31 07:58:34;;;;;;;;;;;3.30;99.90;;;;;;2126834;67;20477;-81
2022/03/31 08:01:15;;;;;;;;;;;3.30;99.90;;;;;;2145148;66;20070;-79
2022/03/31 08:03:58;;;;;;;;;;;2.30;99.90;;;;;;2139750;67;20120;-81
2022/03/31 08:06:42;;;;;;;;;;;3.10;99.90;;;;;;2118316;67;20093;-80
2022/03/31 08:09:29;;;;;;;;;;;3.10;99.90;;;;;;2124607;67;20112;-79
2022/03/31 08:12:11;;;;;;;;;;;3.10;99.90;;;;;;2124894;67;20056;-80
2022/03/31 08:14:53;;;;;;;;;;;3.10;99.90;;;;;;2131858;67;20165;-79
2022/03/31 08:17:35;;;;;;;;;;;3.10;99.90;;;;;;2125382;67;20627;-79
2022/03/31 08:20:17;;;;;;;;;;;3.10;99.90;;;;;;2125128;67;20490;-80
2022/03/31 08:22:59;;;;;;;;;;;3.00;99.90;;;;;;2127260;67;20073;-81
2022/03/31 08:25:41;;;;;;;;;;;3.00;99.90;;;;;;2125861;67;20613;-80
2022/03/31 08:28:25;;;;;;;;;;;3.00;99.90;;;;;;2132507;67;20577;-80
2022/03/31 08:31:06;;;;;;;;;;;3.00;99.90;;;;;;2141959;66;20111;-82
2022/03/31 08:33:47;;;;;;;;;;;3.00;99.90;;;;;;2141290;66;20196;-80
2022/03/31 08:36:29;;;;;;;;;;;3.00;99.90;;;;;;2143477;66;20059;-81
2022/03/31 08:39:10;;;;;;;;;;;2.90;99.90;;;;;;2142210;66;20068;-79
2022/03/31 08:41:52;;;;;;;;;;;2.90;99.90;;;;;;2150949;66;20590;-79
2022/03/31 08:44:35;;;;;;;;;;;3.00;99.90;;;;;;2156387;66;20140;-79
2022/03/31 08:47:22;;;;;;;;;;;3.00;99.90;;;;;;2166841;66;20538;-81
2022/03/31 08:50:10;;;;;;;;;;;3.40;99.90;;;;;;2155147;66;20178;-79
2022/03/31 08:52:53;;;;;;;;;;;3.00;99.90;;;;;;2147924;66;20046;-80
2022/03/31 08:55:36;;;;;;;;;;;3.00;99.90;;;;;;2145696;66;20594;-80
2022/03/31 08:58:20;;;;;;;;;;;3.00;99.90;;;;;;2144613;66;20679;-79
2022/03/31 09:01:01;;;;;;;;;;;3.00;99.90;;;;;;2159506;66;20057;-80
2022/03/31 09:03:46;;;;;;;;;;;2.90;99.90;;;;;;2160930;66;21075;-81
2022/03/31 09:06:31;;;;;;;;;;;2.90;99.90;;;;;;2162106;66;20072;-80
2022/03/31 09:09:16;;;;;;;;;;;2.80;99.90;;;;;;2142585;66;20255;-80
2022/03/31 09:11:58;;;;;;;;;;;2.80;99.90;;;;;;2140603;66;20067;-79
2022/03/31 09:14:40;;;;;;;;;;;2.70;99.90;;;;;;2149200;66;20046;-81
2022/03/31 09:17:25;;;;;;;;;;;2.50;99.90;;;;;;2134154;67;20156;-80
2022/03/31 09:20:08;;;;;;;;;;;2.50;99.90;;;;;;2141490;67;20452;-79
2022/03/31 09:22:50;;;;;;;;;;;2.40;99.90;;;;;;2141163;67;20091;-80
2022/03/31 09:25:32;;;;;;;;;;;2.30;99.90;;;;;;2135478;67;20146;-79
2022/03/31 09:28:18;;;;;;;;;;;2.30;99.90;;;;;;2136303;66;20212;-79
2022/03/31 09:31:02;;;;;;;;;;;2.20;99.90;;;;;;2148678;66;20054;-76
2022/03/31 09:33:48;;;;;;;;;;;2.10;99.90;;;;;;2140634;67;20128;-77
2022/03/31 09:36:32;;;;;;;;;;;2.00;99.90;;;;;;2139191;67;20059;-78
2022/03/31 09:39:17;;;;;;;;;;;1.90;99.90;;;;;;2134947;67;20232;-77
2022/03/31 09:42:01;;;;;;;;;;;1.90;99.90;;;;;;2140386;67;20073;-78
2022/03/31 09:44:43;;;;;;;;;;;1.90;99.90;;;;;;2145840;66;20604;-77
2022/03/31 09:47:26;;;;;;;;;;;1.90;99.90;;;;;;2133264;67;20073;-77
2022/03/31 09:50:12;;;;;;;;;;;1.80;99.90;;;;;;2146930;66;20575;-77
2022/03/31 09:52:56;;;;;;;;;;;1.80;99.90;;;;;;2159644;66;20498;-78
2022/03/31 09:55:38;;;;;;;;;;;1.70;99.90;;;;;;2154892;66;20066;-77
2022/03/31 09:58:22;;;;;;;;;;;1.70;99.90;;;;;;2155555;66;20507;-77
2022/03/31 10:01:06;;;;;;;;;;;1.70;99.90;;;;;;2153967;66;20076;-76
2022/03/31 10:03:49;;;;;;;;;;;1.70;99.90;;;;;;2145898;66;20594;-78
2022/03/31 10:06:32;;;;;;;;;;;1.60;99.90;;;;;;2161861;66;20056;-77
2022/03/31 10:09:15;;;;;;;;;;;1.60;99.90;;;;;;2161724;66;20065;-78
2022/03/31 10:12:12;;;;;;;;;;;1.50;99.90;;;;;;2155198;66;20113;-80
2022/03/31 10:15:18;;;;;;;;;;;1.60;99.90;;;;;;2147624;66;20734;-80
2022/03/31 10:18:01;;;;;;;;;;;1.50;99.90;;;;;;2147663;66;20487;-81
2022/03/31 10:20:51;;;;;;;;;;;1.50;99.90;;;;;;2141351;66;20255;-82
2022/03/31 10:26:33;;;;;;;;;;;1.30;99.90;;;;;;2124821;67;20560;-81
2022/03/31 10:29:17;;;;;;;;;;;1.20;99.90;;;;;;2132270;67;20060;-81
2022/03/31 10:32:00;;;;;;;;;;;1.20;99.90;;;;;;2145761;66;20066;-83
2022/03/31 10:34:43;;;;;;;;;;;1.20;99.90;;;;;;2136596;66;20532;-81
2022/03/31 10:37:38;;;;;;;;;;;1.20;99.90;;;;;;2144296;66;20117;-82
2022/03/31 10:40:16;;;;;;;;;;;1.20;99.90;;;;;;2151198;66;20158;-82
2022/03/31 10:42:55;;;;;;;;;;;1.20;99.90;;;;;;2158764;66;20066;-83
2022/03/31 10:45:36;;;;;;;;;;;1.20;99.90;;;;;;2164009;65;20072;-82
2022/03/31 10:48:16;;;;;;;;;;;1.20;99.90;;;;;;2175959;65;20158;-81
2022/03/31 10:51:08;;;;;;;;;;;1.20;99.90;;;;;;2176663;65;20055;-82
2022/03/31 10:53:49;;;;;;;;;;;1.30;99.90;;;;;;2177260;65;20583;-82
2022/03/31 10:56:40;;;;;;;;;;;1.30;99.90;;;;;;2179981;65;20575;-81
2022/03/31 10:59:15;;;;;;;;;;;1.40;99.90;;;;;;2205617;64;20606;-81
2022/03/31 11:01:45;;;;;;;;;;;1.50;99.90;;;;;;2205816;64;20562;-82
2022/03/31 11:04:44;;;;;;;;;;;1.50;99.90;;;;;;2199911;65;20053;-81
2022/03/31 11:07:24;;;;;;;;;;;1.50;99.90;;;;;;2198880;65;20223;-81
2022/03/31 11:10:03;;;;;;;;;;;1.40;99.90;;;;;;2197624;65;20628;-80
2022/03/31 11:12:35;;;;;;;;;;;1.40;99.90;;;;;;2192572;65;20070;-81
2022/03/31 11:15:17;;;;;;;;;;;1.30;99.90;;;;;;2177892;65;20067;-81
2022/03/31 11:18:08;;;;;;;;;;;1.30;99.90;;;;;;2166970;65;20049;-82
2022/03/31 11:20:44;;;;;;;;;;;1.20;99.90;;;;;;2169263;65;20056;-79
2022/03/31 11:23:22;;;;;;;;;;;1.30;99.90;;;;;;2179401;65;20047;-81
2022/03/31 11:26:02;;;;;;;;;;;1.20;99.90;;;;;;2183667;64;20144;-81
2022/03/31 11:28:41;;;;;;;;;;;1.10;99.90;;;;;;2188645;64;20123;-79
2022/03/31 11:31:20;;;;;;;;;;;1.00;99.90;;;;;;2183396;64;20047;-78
2022/03/31 11:33:59;;;;;;;;;;;1.00;99.90;;;;;;2183829;64;20060;-80
2022/03/31 11:36:40;;;;;;;;;;;1.00;99.90;;;;;;2221860;64;20317;-80
2022/03/31 11:39:27;;;;;;;;;;;1.00;99.90;;;;;;2215123;64;20641;-80
2022/03/31 11:42:10;;;;;;;;;;;1.00;99.90;;;;;;2205213;65;20110;-80
2022/03/31 11:44:57;;;;;;;;;;;0.90;99.90;;;;;;2205884;65;20065;-79
2022/03/31 11:47:39;;;;;;;;;;;0.90;99.90;;;;;;2203817;65;20135;-80
2022/03/31 11:50:20;;;;;;;;;;;0.90;99.90;;;;;;2198307;65;20588;-79
2022/03/31 11:53:02;;;;;;;;;;;0.70;99.90;;;;;;2183175;65;20216;-79
2022/03/31 11:55:53;;;;;;;;;;;0.70;99.90;;;;;;2175931;65;20129;-79
2022/03/31 11:58:35;;;;;;;;;;;0.60;99.90;;;;;;2176045;65;20128;-77
2022/03/31 12:01:17;;;;;;;;;;;0.60;99.90;;;;;;2176215;65;20099;-79
2022/03/31 12:04:00;;;;;;;;;;;0.80;99.90;;;;;;2168610;66;20434;-79
2022/03/31 12:06:44;;;;;;;;;;;0.60;99.90;;;;;;2151782;66;20069;-78
2022/03/31 12:09:28;;;;;;;;;;;0.60;99.90;;;;;;2117790;67;20194;-80
2022/03/31 12:12:14;;;;;;;;;;;0.60;99.90;;;;;;2118330;67;20401;-79
2022/03/31 12:14:58;;;;;;;;;;;0.70;99.90;;;;;;2116761;67;20183;-79
2022/03/31 12:17:33;;;;;;;;;;;0.80;99.90;;;;;;2362336;54;20080;-80
2022/03/31 12:20:15;;;;;;;;;;;0.80;99.90;;;;;;2213882;64;20120;-80
2022/03/31 12:22:58;;;;;;;;;;;0.90;99.90;;;;;;2193106;65;20110;-80
2022/03/31 12:25:42;;;;;;;;;;;0.90;99.90;;;;;;2199058;65;20093;-80
2022/03/31 12:28:23;;;;;;;;;;;0.80;99.90;;;;;;2193212;65;20228;-80
2022/03/31 12:31:04;;;;;;;;;;;0.80;99.90;;;;;;2180094;65;20174;-80
2022/03/31 12:33:50;;;;;;;;;;;0.80;99.90;;;;;;2184483;65;20052;-79
2022/03/31 12:36:32;;;;;;;;;;;0.80;99.90;;;;;;2163316;66;20214;-83
2022/03/31 12:39:13;;;;;;;;;;;1.40;99.90;;;;;;2156045;66;20605;-81
2022/03/31 12:42:18;;;;;;;;;;;0.90;99.90;;;;;;2139903;67;20079;-81
2022/03/31 12:44:59;;;;;;;;;;;0.90;99.90;;;;;;2133890;67;20197;-81
2022/03/31 12:47:41;;;;;;;;;;;0.90;99.90;;;;;;2125114;67;20590;-82
2022/03/31 12:50:23;;;;;;;;;;;0.70;99.90;;;;;;2122961;67;20245;-81
2022/03/31 12:53:05;;;;;;;;;;;0.90;99.90;;;;;;2130982;67;20178;-81
2022/03/31 12:55:51;;;;;;;;;;;1.00;99.90;;;;;;2127261;67;20552;-82
2022/03/31 12:58:38;;;;;;;;;;;1.70;99.90;;;;;;2128117;67;20470;-80
2022/03/31 13:01:21;;;;;;;;;;;1.00;99.90;;;;;;2127200;67;20104;-80
2022/03/31 13:04:02;;;;;;;;;;;0.90;99.90;;;;;;2126756;67;20093;-80
2022/03/31 13:06:45;;;;;;;;;;;0.90;99.90;;;;;;2114374;67;20148;-81
2022/03/31 13:09:31;;;;;;;;;;;1.00;99.90;;;;;;2122251;67;20304;-81
2022/03/31 13:12:12;;;;;;;;;;;1.00;99.90;;;;;;2128774;67;20712;-82
2022/03/31 13:14:53;;;;;;;;;;;1.20;99.90;;;;;;2119818;67;20134;-81
2022/03/31 13:17:35;;;;;;;;;;;0.90;99.90;;;;;;2115533;67;20262;-80
2022/03/31 13:20:17;;;;;;;;;;;1.00;99.90;;;;;;2112425;67;20212;-81
2022/03/31 13:22:59;;;;;;;;;;;1.00;99.90;;;;;;2098653;68;20108;-82
2022/03/31 13:25:40;;;;;;;;;;;1.00;99.90;;;;;;2084939;68;20550;-81
2022/03/31 13:28:21;;;;;;;;;;;1.00;99.90;;;;;;2111378;67;20102;-81
2022/03/31 13:31:02;;;;;;;;;;;1.00;99.90;;;;;;2127713;67;20555;-81
2022/03/31 13:33:46;;;;;;;;;;;1.00;99.90;;;;;;2128517;67;20088;-82
2022/03/31 13:36:28;;;;;;;;;;;0.60;99.90;;;;;;2141048;67;20590;-83
2022/03/31 13:39:15;;;;;;;;;;;1.10;99.90;;;;;;2134155;67;20185;-78
2022/03/31 13:41:57;;;;;;;;;;;1.10;99.90;;;;;;2135892;67;20144;-82
2022/03/31 13:44:39;;;;;;;;;;;1.00;99.90;;;;;;2133882;67;20140;-81
2022/03/31 13:47:21;;;;;;;;;;;1.00;99.90;;;;;;2127717;67;20213;-80
2022/03/31 13:50:03;;;;;;;;;;;1.00;99.90;;;;;;2118570;67;20165;-79
2022/03/31 13:53:43;;;;;;;;;;;0.90;99.90;;;;;;2120525;67;20142;-82
2022/03/31 13:55:48;;;;;;;;;;;0.90;99.90;;;;;;2122038;67;20556;-81
2022/03/31 14:01:30;;;;;;;;;;;0.80;99.90;;;;;;2122552;67;20638;-82
2022/03/31 14:04:11;;;;;;;;;;;1.40;99.90;;;;;;2142299;66;20586;-84
2022/03/31 14:06:53;;;;;;;;;;;0.90;99.90;;;;;;2140644;67;20512;-84
2022/03/31 14:09:35;;;;;;;;;;;0.90;99.90;;;;;;2137756;67;20209;-83
2022/03/31 14:12:17;;;;;;;;;;;0.80;99.90;;;;;;2126047;67;20048;-84
2022/03/31 14:14:58;;;;;;;;;;;0.80;99.90;;;;;;2119137;67;20242;-84
2022/03/31 14:17:40;;;;;;;;;;;0.70;99.90;;;;;;2133405;67;20186;-84
2022/03/31 14:20:22;;;;;;;;;;;0.60;99.90;;;;;;2133484;67;20084;-83
2022/03/31 14:23:05;;;;;;;;;;;0.80;99.90;;;;;;2136866;67;20145;-82
2022/03/31 14:25:46;;;;;;;;;;;0.70;99.90;;;;;;2133686;67;20114;-83
2022/03/31 14:28:29;;;;;;;;;;;0.70;99.90;;;;;;2133545;67;20223;-87
2022/03/31 14:31:12;;;;;;;;;;;0.70;99.90;;;;;;2121672;67;20472;-85
2022/03/31 14:33:53;;;;;;;;;;;0.70;99.90;;;;;;2109685;67;20179;-85
2022/03/31 14:36:35;;;;;;;;;;;0.60;99.90;;;;;;2119789;67;20194;-85
2022/03/31 14:39:16;;;;;;;;;;;0.70;99.90;;;;;;2127936;67;20119;-85
2022/03/31 14:42:03;;;;;;;;;;;0.70;99.90;;;;;;2128386;67;20141;-83
2022/03/31 14:44:45;;;;;;;;;;;0.70;99.90;;;;;;2122187;67;20057;-85
2022/03/31 14:47:32;;;;;;;;;;;0.70;99.90;;;;;;2120188;67;20085;-84
2022/03/31 14:50:13;;;;;;;;;;;0.60;99.90;;;;;;2116045;67;20069;-83
2022/03/31 14:52:53;;;;;;;;;;;0.70;99.90;;;;;;2113510;67;20591;-83
2022/03/31 14:55:43;;;;;;;;;;;0.70;99.90;;;;;;2127363;67;20195;-83
2022/03/31 14:58:26;;;;;;;;;;;0.70;99.90;;;;;;2119977;67;20112;-83
2022/03/31 15:01:14;;;;;;;;;;;0.70;99.90;;;;;;2105741;68;20163;-89
2022/03/31 15:03:59;;;;;;;;;;;0.80;99.90;;;;;;2101014;67;20148;-87
2022/03/31 15:06:50;;;;;;;;;;;0.80;99.90;;;;;;2123309;67;20157;-88
2022/03/31 15:15:36;;;;;;;;;;;0.20;99.90;;;;;;2134112;67;20415;-83
2022/03/31 15:18:25;;;;;;;;;;;0.80;99.90;;;;;;2144452;66;20598;-85
2022/03/31 15:21:10;;;;;;;;;;;0.80;99.90;;;;;;2141499;67;20128;-85
2022/03/31 15:23:56;;;;;;;;;;;0.80;99.90;;;;;;2147917;66;20264;-84
2022/03/31 15:26:44;;;;;;;;;;;0.90;99.90;;;;;;2145741;66;20140;-86
2022/03/31 15:29:27;;;;;;;;;;;0.90;99.90;;;;;;2159816;66;20071;-85
2022/03/31 15:32:14;;;;;;;;;;;1.00;99.90;;;;;;2159094;66;20143;-84
2022/03/31 15:34:56;;;;;;;;;;;1.00;99.90;;;;;;2148543;66;20569;-84
2022/03/31 15:37:47;;;;;;;;;;;1.00;99.90;;;;;;2141030;67;20771;-81
2022/03/31 15:40:28;;;;;;;;;;;1.00;99.90;;;;;;2125552;67;20211;-79
2022/03/31 15:43:15;;;;;;;;;;;1.00;99.90;;;;;;2119074;67;20127;-80
2022/03/31 15:45:58;;;;;;;;;;;1.00;99.90;;;;;;2117168;67;20116;-82
2022/03/31 15:48:41;;;;;;;;;;;1.00;99.90;;;;;;2120997;67;20263;-82
2022/03/31 15:51:25;;;;;;;;;;;1.30;99.90;;;;;;2120393;67;20225;-82
2022/03/31 15:54:09;;;;;;;;;;;1.10;99.90;;;;;;2118591;67;20122;-84
2022/03/31 15:56:52;;;;;;;;;;;1.10;99.90;;;;;;2126073;67;20260;-82
2022/03/31 15:59:36;;;;;;;;;;;1.10;99.90;;;;;;2120344;67;20194;-83
2022/03/31 16:02:17;;;;;;;;;;;1.10;99.90;;;;;;2128583;67;20518;-82
2022/03/31 16:05:20;;;;;;;;;;;;;;;;;;;;;
2022/03/31 16:08:09;;;;;;;;;;;1.10;99.90;;;;;;2094316;68;20135;-82
2022/03/31 16:10:51;;;;;;;;;;;1.10;99.90;;;;;;2111066;67;20074;-81
2022/03/31 16:13:37;;;;;;;;;;;1.10;99.90;;;;;;2113028;67;20077;-81
2022/03/31 16:16:19;;;;;;;;;;;1.00;99.90;;;;;;2111411;67;20058;-81
2022/03/31 16:19:01;;;;;;;;;;;1.10;99.90;;;;;;2108947;67;20585;-80
2022/03/31 16:21:43;;;;;;;;;;;1.10;99.90;;;;;;2104627;68;20076;-79